Time;durP1;ratioP1;P1;durP2;ratioP2;P2;SDS_P1;SDS_P2;PMS_P1;PMS_P2;Temp;Humidity;BMP_temperature;BMP_pressure;BME280_temperature;BME280_humidity;BME280_pressure;Samples;Min_cycle;Max_cycle;Signal;HPM_P1;HPM_P2
2021/04/17 00:00:50;;;;;;;7.13;3.25;;;;;;;;;;5074584;28;20078;-68
2021/04/17 00:03:16;;;;;;;5.70;2.97;;;;;;;;;;5071317;28;20029;-68
2021/04/17 00:05:42;;;;;;;6.53;3.08;;;;;;;;;;5077393;28;20115;-68
2021/04/17 00:08:09;;;;;;;7.15;3.30;;;;;;;;;;5074500;28;20093;-68
2021/04/17 00:10:35;;;;;;;6.63;3.40;;;;;;;;;;5074199;28;20074;-68
2021/04/17 00:13:01;;;;;;;6.45;3.85;;;;;;;;;;5074538;28;20028;-68
2021/04/17 00:15:26;;;;;;;6.05;2.95;;;;;;;;;;5071096;28;20029;-70
2021/04/17 00:17:52;;;;;;;7.38;3.35;;;;;;;;;;5075053;28;20028;-68
2021/04/17 00:20:18;;;;;;;6.60;3.20;;;;;;;;;;5076092;28;20055;-70
2021/04/17 00:22:45;;;;;;;4.65;2.75;;;;;;;;;;5074826;28;20033;-69
2021/04/17 00:25:11;;;;;;;4.07;2.17;;;;;;;;;;5074070;28;20029;-69
2021/04/17 00:27:37;;;;;;;6.15;3.00;;;;;;;;;;5073139;28;20099;-69
2021/04/17 00:30:04;;;;;;;8.00;3.30;;;;;;;;;;5072095;28;20036;-69
2021/04/17 00:32:30;;;;;;;5.18;2.92;;;;;;;;;;5076985;28;20046;-69
2021/04/17 00:34:56;;;;;;;5.90;3.33;;;;;;;;;;5074069;28;20033;-70
2021/04/17 00:37:22;;;;;;;5.05;2.65;;;;;;;;;;5073828;28;20059;-68
2021/04/17 00:39:50;;;;;;;5.75;3.17;;;;;;;;;;5074043;28;20032;-69
2021/04/17 00:42:15;;;;;;;6.47;3.00;;;;;;;;;;5070277;28;20079;-69
2021/04/17 00:44:41;;;;;;;4.85;3.00;;;;;;;;;;5076048;28;20304;-69
2021/04/17 00:47:08;;;;;;;4.40;2.80;;;;;;;;;;5074646;28;20033;-69
2021/04/17 00:49:34;;;;;;;4.70;2.72;;;;;;;;;;5074013;28;20103;-69
2021/04/17 00:52:01;;;;;;;3.60;2.15;;;;;;;;;;5067661;28;20033;-69
2021/04/17 00:54:27;;;;;;;4.00;2.17;;;;;;;;;;5085043;28;20057;-69
2021/04/17 00:56:53;;;;;;;4.68;2.90;;;;;;;;;;5073796;28;20242;-69
2021/04/17 00:59:19;;;;;;;4.57;2.70;;;;;;;;;;5075130;28;20030;-70
2021/04/17 01:01:46;;;;;;;4.82;2.80;;;;;;;;;;5073833;28;20465;-69
2021/04/17 01:04:17;;;;;;;7.35;2.92;;;;;;;;;;5073618;28;20025;-69
2021/04/17 01:07:03;;;;;;;3.83;2.42;;;;;;;;;;5073503;28;20082;-69
2021/04/17 01:09:45;;;;;;;3.72;2.15;;;;;;;;;;5057170;28;20035;-69
2021/04/17 01:12:15;;;;;;;4.22;2.05;;;;;;;;;;5053658;28;20021;-69
2021/04/17 01:14:41;;;;;;;4.20;2.20;;;;;;;;;;5083416;28;20024;-69
2021/04/17 01:17:10;;;;;;;4.47;2.45;;;;;;;;;;5075022;28;20044;-69
2021/04/17 01:19:49;;;;;;;3.83;2.60;;;;;;;;;;5072844;28;20482;-69
2021/04/17 01:22:20;;;;;;;5.28;2.88;;;;;;;;;;5073185;28;20025;-69
2021/04/17 01:24:52;;;;;;;5.22;2.95;;;;;;;;;;5073297;28;20069;-70
2021/04/17 01:27:19;;;;;;;5.13;2.85;;;;;;;;;;5069621;28;20110;-69
2021/04/17 01:29:44;;;;;;;6.40;3.22;;;;;;;;;;5074679;28;20062;-69
2021/04/17 01:32:13;;;;;;;5.18;2.78;;;;;;;;;;5074370;28;20033;-69
2021/04/17 01:34:39;;;;;;;;;;;;;;;;;;5073802;28;20324;-67
2021/04/17 01:37:05;;;;;;;6.10;2.75;;;;;;;;;;5072626;28;19917;-69
2021/04/17 01:39:32;;;;;;;4.30;2.38;;;;;;;;;;5071300;28;20025;-69
2021/04/17 01:42:03;;;;;;;3.08;2.22;;;;;;;;;;5071911;28;20063;-69
2021/04/17 01:44:31;;;;;;;4.72;2.40;;;;;;;;;;5091445;28;20379;-70
2021/04/17 01:47:04;;;;;;;3.53;2.30;;;;;;;;;;5073276;28;20029;-69
2021/04/17 01:49:31;;;;;;;5.65;2.33;;;;;;;;;;5072486;28;20024;-69
2021/04/17 01:51:57;;;;;;;5.78;3.65;;;;;;;;;;5072620;28;20032;-69
2021/04/17 01:54:25;;;;;;;5.60;2.85;;;;;;;;;;5069887;28;20498;-69
2021/04/17 01:56:54;;;;;;;7.57;3.25;;;;;;;;;;5071814;28;20437;-69
2021/04/17 01:59:21;;;;;;;6.43;3.63;;;;;;;;;;5073815;28;20021;-70
2021/04/17 02:01:47;;;;;;;6.53;3.30;;;;;;;;;;5072283;28;20489;-69
2021/04/17 02:04:13;;;;;;;7.45;4.65;;;;;;;;;;5072989;28;20028;-69
2021/04/17 02:06:40;;;;;;;6.97;4.25;;;;;;;;;;5071840;28;20024;-69
2021/04/17 02:09:06;;;;;;;6.45;3.90;;;;;;;;;;5069333;28;20456;-69
2021/04/17 02:11:32;;;;;;;8.18;4.47;;;;;;;;;;5074950;28;20024;-69
2021/04/17 02:14:01;;;;;;;7.25;3.50;;;;;;;;;;5072653;28;20042;-70
2021/04/17 02:16:33;;;;;;;7.38;3.55;;;;;;;;;;5072482;28;20040;-69
2021/04/17 02:19:00;;;;;;;6.20;3.42;;;;;;;;;;5072483;28;20054;-69
2021/04/17 02:21:31;;;;;;;5.43;2.72;;;;;;;;;;5069585;28;20107;-69
2021/04/17 02:23:57;;;;;;;6.05;3.08;;;;;;;;;;5071478;28;20052;-69
2021/04/17 02:26:23;;;;;;;5.28;2.97;;;;;;;;;;5074172;28;20040;-69
2021/04/17 02:28:49;;;;;;;5.05;2.90;;;;;;;;;;5071989;28;20116;-69
2021/04/17 02:31:15;;;;;;;4.15;2.80;;;;;;;;;;5071974;28;20064;-69
2021/04/17 02:33:41;;;;;;;5.25;2.83;;;;;;;;;;5071156;28;20016;-69
2021/04/17 02:36:07;;;;;;;4.88;3.00;;;;;;;;;;5068237;28;20049;-69
2021/04/17 02:38:34;;;;;;;7.82;3.00;;;;;;;;;;5075189;28;20103;-69
2021/04/17 02:41:00;;;;;;;4.28;2.65;;;;;;;;;;5071894;28;20032;-69
2021/04/17 02:43:26;;;;;;;6.70;3.20;;;;;;;;;;5072048;28;20056;-69
2021/04/17 02:45:52;;;;;;;5.43;2.88;;;;;;;;;;5071263;28;20036;-69
2021/04/17 02:48:18;;;;;;;5.35;3.20;;;;;;;;;;5068315;28;20070;-69
2021/04/17 02:50:44;;;;;;;5.88;2.92;;;;;;;;;;5074010;28;20025;-69
2021/04/17 02:53:10;;;;;;;4.50;2.80;;;;;;;;;;5072849;28;20043;-69
2021/04/17 02:55:36;;;;;;;3.90;2.53;;;;;;;;;;5072126;28;20037;-70
2021/04/17 02:58:02;;;;;;;4.25;2.60;;;;;;;;;;5071841;28;20462;-69
2021/04/17 03:00:28;;;;;;;2.85;2.00;;;;;;;;;;5070022;28;20036;-69
2021/04/17 03:02:54;;;;;;;5.05;2.50;;;;;;;;;;5071768;28;20497;-69
2021/04/17 03:05:20;;;;;;;3.58;2.25;;;;;;;;;;5073175;28;20033;-69
2021/04/17 03:07:46;;;;;;;4.10;2.25;;;;;;;;;;5071585;28;20089;-69
2021/04/17 03:10:12;;;;;;;2.97;1.95;;;;;;;;;;5072191;28;20070;-69
2021/04/17 03:12:38;;;;;;;4.00;2.10;;;;;;;;;;5071111;28;20034;-70
2021/04/17 03:15:06;;;;;;;3.58;1.92;;;;;;;;;;5068977;28;20033;-69
2021/04/17 03:17:32;;;;;;;5.45;2.60;;;;;;;;;;5074764;28;20104;-68
2021/04/17 03:19:58;;;;;;;2.67;1.85;;;;;;;;;;5071412;28;20068;-68
2021/04/17 03:22:24;;;;;;;4.32;2.55;;;;;;;;;;5072035;28;20033;-69
2021/04/17 03:24:50;;;;;;;3.38;2.20;;;;;;;;;;5071341;28;20040;-69
2021/04/17 03:27:16;;;;;;;4.70;2.70;;;;;;;;;;5067717;28;20029;-69
2021/04/17 03:29:42;;;;;;;4.18;2.30;;;;;;;;;;5074094;28;20573;-69
2021/04/17 03:32:08;;;;;;;4.38;2.40;;;;;;;;;;5072145;28;20032;-68
2021/04/17 03:34:34;;;;;;;4.05;2.58;;;;;;;;;;5071534;28;20021;-69
2021/04/17 03:37:00;;;;;;;3.63;2.05;;;;;;;;;;5071565;28;20126;-69
2021/04/17 03:39:26;;;;;;;3.17;2.33;;;;;;;;;;5068995;28;20049;-69
2021/04/17 03:41:52;;;;;;;3.55;2.35;;;;;;;;;;5072187;28;20041;-69
2021/04/17 03:44:18;;;;;;;4.13;2.00;;;;;;;;;;5075592;28;20029;-70
2021/04/17 03:46:44;;;;;;;4.97;2.60;;;;;;;;;;5074107;28;20050;-69
2021/04/17 03:49:10;;;;;;;3.55;2.38;;;;;;;;;;5075339;28;20386;-69
2021/04/17 03:51:36;;;;;;;3.53;2.50;;;;;;;;;;5074102;28;20031;-69
2021/04/17 03:54:02;;;;;;;4.15;2.35;;;;;;;;;;5073134;28;20429;-69
2021/04/17 03:56:28;;;;;;;3.70;2.38;;;;;;;;;;5077028;28;20119;-68
2021/04/17 03:58:54;;;;;;;2.60;2.10;;;;;;;;;;5075025;28;20108;-69
2021/04/17 04:01:20;;;;;;;4.53;2.13;;;;;;;;;;5074803;28;20405;-70
2021/04/17 04:03:46;;;;;;;3.83;2.45;;;;;;;;;;5074749;28;20032;-69
2021/04/17 04:06:12;;;;;;;4.93;2.80;;;;;;;;;;5070685;28;20039;-69
2021/04/17 04:08:38;;;;;;;5.30;3.38;;;;;;;;;;5078000;28;20032;-70
2021/04/17 04:11:04;;;;;;;7.68;4.63;;;;;;;;;;5073411;28;20560;-69
2021/04/17 04:13:30;;;;;;;7.78;4.30;;;;;;;;;;5074964;28;20068;-69
2021/04/17 04:15:56;;;;;;;5.60;3.03;;;;;;;;;;5074598;28;20050;-69
2021/04/17 04:18:22;;;;;;;5.18;2.55;;;;;;;;;;5071960;28;20029;-69
2021/04/17 04:20:48;;;;;;;5.88;3.40;;;;;;;;;;5075290;28;20028;-69
2021/04/17 04:23:14;;;;;;;6.55;2.50;;;;;;;;;;5075851;28;20024;-69
2021/04/17 04:25:40;;;;;;;3.45;2.38;;;;;;;;;;5074368;28;20047;-70
2021/04/17 04:28:06;;;;;;;3.15;2.20;;;;;;;;;;5074494;28;20115;-69
2021/04/17 04:30:32;;;;;;;3.45;2.35;;;;;;;;;;5073079;28;20089;-68
2021/04/17 04:32:59;;;;;;;4.55;2.88;;;;;;;;;;5073411;28;20025;-69
2021/04/17 04:35:25;;;;;;;4.50;2.70;;;;;;;;;;5076132;28;20040;-69
2021/04/17 04:37:51;;;;;;;4.78;2.40;;;;;;;;;;5074055;28;20029;-69
2021/04/17 04:40:17;;;;;;;4.10;2.35;;;;;;;;;;5074295;28;20110;-69
2021/04/17 04:42:43;;;;;;;4.55;2.38;;;;;;;;;;5073087;28;20059;-68
2021/04/17 04:45:09;;;;;;;6.57;3.10;;;;;;;;;;5069997;28;20483;-68
2021/04/17 04:47:35;;;;;;;4.50;2.30;;;;;;;;;;5077263;28;20025;-68
2021/04/17 04:50:02;;;;;;;4.32;2.28;;;;;;;;;;5074260;28;20029;-69
2021/04/17 04:52:28;;;;;;;2.60;2.03;;;;;;;;;;5074197;28;20059;-69
2021/04/17 04:54:53;;;;;;;2.78;2.00;;;;;;;;;;5072198;28;20032;-68
2021/04/17 04:57:19;;;;;;;3.55;2.30;;;;;;;;;;5070382;28;20033;-69
2021/04/17 04:59:45;;;;;;;2.85;1.95;;;;;;;;;;5075458;28;20086;-66
2021/04/17 05:02:11;;;;;;;5.32;2.30;;;;;;;;;;5074904;28;20491;-66
2021/04/17 05:04:37;;;;;;;3.42;2.20;;;;;;;;;;5073532;28;20028;-67
2021/04/17 05:07:03;;;;;;;4.05;2.50;;;;;;;;;;5073770;28;20036;-66
2021/04/17 05:09:29;;;;;;;2.92;1.90;;;;;;;;;;5071674;28;20025;-68
2021/04/17 05:11:55;;;;;;;3.88;2.17;;;;;;;;;;5073418;28;20028;-67
2021/04/17 05:14:22;;;;;;;3.63;2.10;;;;;;;;;;5074903;28;20115;-65
2021/04/17 05:16:48;;;;;;;4.00;2.15;;;;;;;;;;5073230;28;20051;-68
2021/04/17 05:19:14;;;;;;;3.95;2.22;;;;;;;;;;5072059;28;20033;-69
2021/04/17 05:21:41;;;;;;;2.97;2.10;;;;;;;;;;5072984;28;20154;-66
2021/04/17 05:24:10;;;;;;;4.05;2.10;;;;;;;;;;5069854;28;20482;-67
2021/04/17 05:26:36;;;;;;;;;;;;;;;;;;5077100;28;20029;-68
2021/04/17 05:29:03;;;;;;;5.30;1.90;;;;;;;;;;5072717;28;19909;-65
2021/04/17 05:31:29;;;;;;;3.33;2.10;;;;;;;;;;5073374;28;20407;-69
2021/04/17 05:33:55;;;;;;;3.97;2.08;;;;;;;;;;5071835;28;20131;-69
2021/04/17 05:36:22;;;;;;;3.08;2.08;;;;;;;;;;5069841;28;20052;-68
2021/04/17 05:38:48;;;;;;;5.25;2.22;;;;;;;;;;5074290;28;20024;-70
2021/04/17 05:41:16;;;;;;;4.20;2.05;;;;;;;;;;5075722;28;20111;-69
2021/04/17 05:43:42;;;;;;;3.92;2.30;;;;;;;;;;5072429;28;20035;-69
2021/04/17 05:46:08;;;;;;;4.20;2.10;;;;;;;;;;5073015;28;20020;-68
2021/04/17 05:48:34;;;;;;;4.78;2.33;;;;;;;;;;5071942;28;20088;-68
2021/04/17 05:51:00;;;;;;;4.28;2.72;;;;;;;;;;5071353;28;20040;-69
2021/04/17 05:53:26;;;;;;;3.28;2.10;;;;;;;;;;5075142;28;20119;-66
2021/04/17 05:55:53;;;;;;;4.90;2.58;;;;;;;;;;5072751;28;20403;-69
2021/04/17 05:58:19;;;;;;;3.40;2.40;;;;;;;;;;5071130;28;20087;-68
2021/04/17 06:00:45;;;;;;;5.55;2.30;;;;;;;;;;5072793;28;20024;-69
2021/04/17 06:03:11;;;;;;;3.95;2.45;;;;;;;;;;5068465;28;20159;-70
2021/04/17 06:05:37;;;;;;;4.55;2.40;;;;;;;;;;5091089;28;20036;-69
2021/04/17 06:08:03;;;;;;;4.05;1.90;;;;;;;;;;5072458;28;20037;-70
2021/04/17 06:10:29;;;;;;;2.78;1.80;;;;;;;;;;5072717;28;20024;-70
2021/04/17 06:12:55;;;;;;;2.83;1.60;;;;;;;;;;5072315;28;20031;-69
2021/04/17 06:15:21;;;;;;;1.90;1.55;;;;;;;;;;5069226;28;20036;-72
2021/04/17 06:17:47;;;;;;;3.13;1.70;;;;;;;;;;5074483;28;20028;-71
2021/04/17 06:20:13;;;;;;;3.70;1.60;;;;;;;;;;5068232;28;20057;-75
2021/04/17 06:22:39;;;;;;;3.13;1.73;;;;;;;;;;5071415;28;20429;-75
2021/04/17 06:25:07;;;;;;;2.70;1.63;;;;;;;;;;5069346;28;20575;-74
2021/04/17 06:27:33;;;;;;;2.72;1.58;;;;;;;;;;5068412;28;20383;-76
2021/04/17 06:29:59;;;;;;;4.35;2.08;;;;;;;;;;5073169;28;20024;-76
2021/04/17 06:32:25;;;;;;;3.95;1.73;;;;;;;;;;5072819;28;20028;-75
2021/04/17 06:34:51;;;;;;;2.38;1.67;;;;;;;;;;5069836;28;20099;-75
2021/04/17 06:37:17;;;;;;;2.97;2.20;;;;;;;;;;5069652;28;20396;-76
2021/04/17 06:39:43;;;;;;;2.58;1.92;;;;;;;;;;5070329;28;20114;-74
2021/04/17 06:42:10;;;;;;;3.72;1.48;;;;;;;;;;5064917;28;20542;-75
2021/04/17 06:44:37;;;;;;;2.20;1.40;;;;;;;;;;5073962;28;20093;-72
2021/04/17 06:47:03;;;;;;;2.78;1.77;;;;;;;;;;5072489;28;20036;-72
2021/04/17 06:49:31;;;;;;;4.90;2.20;;;;;;;;;;5073677;28;20029;-70
2021/04/17 06:51:57;;;;;;;2.88;1.88;;;;;;;;;;5080643;28;20525;-70
2021/04/17 06:54:26;;;;;;;3.75;1.80;;;;;;;;;;5069222;28;20511;-71
2021/04/17 06:56:52;;;;;;;2.65;1.30;;;;;;;;;;5071991;28;20032;-75
2021/04/17 06:59:18;;;;;;;3.20;1.38;;;;;;;;;;5067940;28;20068;-69
2021/04/17 07:01:44;;;;;;;1.75;1.30;;;;;;;;;;5072613;28;20025;-69
2021/04/17 07:04:10;;;;;;;3.33;2.10;;;;;;;;;;5072231;28;20021;-68
2021/04/17 07:06:36;;;;;;;3.95;1.75;;;;;;;;;;5070745;28;20043;-69
2021/04/17 07:09:13;;;;;;;2.05;1.42;;;;;;;;;;5070020;28;20029;-70
2021/04/17 07:11:39;;;;;;;2.42;1.70;;;;;;;;;;5074861;28;20016;-70
2021/04/17 07:14:14;;;;;;;2.42;1.50;;;;;;;;;;5072088;28;20059;-69
2021/04/17 07:16:56;;;;;;;1.90;1.45;;;;;;;;;;5071935;28;20025;-76
2021/04/17 07:19:24;;;;;;;3.22;1.52;;;;;;;;;;5075624;28;20024;-70
2021/04/17 07:21:51;;;;;;;2.80;1.30;;;;;;;;;;5075476;28;20035;-69
2021/04/17 07:24:25;;;;;;;1.77;1.38;;;;;;;;;;5075127;28;20025;-69
2021/04/17 07:26:54;;;;;;;1.83;1.40;;;;;;;;;;5076166;28;20127;-70
2021/04/17 07:29:20;;;;;;;2.30;1.33;;;;;;;;;;5076401;28;20023;-69
2021/04/17 07:31:53;;;;;;;1.60;1.10;;;;;;;;;;5075067;28;20012;-69
2021/04/17 07:34:28;;;;;;;1.27;1.08;;;;;;;;;;5075234;28;20383;-68
2021/04/17 07:36:56;;;;;;;2.33;1.30;;;;;;;;;;5075239;28;20058;-70
2021/04/17 07:39:31;;;;;;;2.60;1.30;;;;;;;;;;5071989;28;20028;-71
2021/04/17 07:42:23;;;;;;;1.30;1.20;;;;;;;;;;5072930;28;20032;-69
2021/04/17 07:44:50;;;;;;;4.15;1.38;;;;;;;;;;5074130;28;20490;-69
2021/04/17 07:47:32;;;;;;;1.67;1.00;;;;;;;;;;5076379;28;20017;-70
2021/04/17 07:50:09;;;;;;;1.52;1.00;;;;;;;;;;5075279;28;20117;-70
2021/04/17 07:52:35;;;;;;;1.38;0.90;;;;;;;;;;5075191;28;20024;-69
2021/04/17 07:55:02;;;;;;;1.17;0.98;;;;;;;;;;5075625;28;20031;-69
2021/04/17 07:57:31;;;;;;;1.50;1.00;;;;;;;;;;5072773;28;20119;-73
2021/04/17 07:59:57;;;;;;;1.88;1.10;;;;;;;;;;5074385;28;20025;-64
2021/04/17 08:02:24;;;;;;;1.20;0.90;;;;;;;;;;5076441;28;20047;-68
2021/04/17 08:04:50;;;;;;;1.67;0.95;;;;;;;;;;5074350;28;20468;-68
2021/04/17 08:07:19;;;;;;;1.45;1.00;;;;;;;;;;5072770;28;20024;-68
2021/04/17 08:09:54;;;;;;;2.10;1.08;;;;;;;;;;5079162;28;20094;-68
2021/04/17 08:12:20;;;;;;;1.08;0.88;;;;;;;;;;5085782;28;20500;-67
2021/04/17 08:14:46;;;;;;;2.13;1.00;;;;;;;;;;5075952;28;20028;-67
2021/04/17 08:17:12;;;;;;;0.90;0.73;;;;;;;;;;5087205;28;20056;-67
2021/04/17 08:19:39;;;;;;;2.65;0.82;;;;;;;;;;5078475;28;20017;-67
2021/04/17 08:22:05;;;;;;;0.95;0.80;;;;;;;;;;5074510;28;20033;-67
2021/04/17 08:24:32;;;;;;;3.20;1.02;;;;;;;;;;5072729;28;20025;-68
2021/04/17 08:26:59;;;;;;;1.02;0.90;;;;;;;;;;5084285;28;20043;-67
2021/04/17 08:29:43;;;;;;;1.60;1.10;;;;;;;;;;5073379;28;20135;-67
2021/04/17 08:32:28;;;;;;;2.20;1.00;;;;;;;;;;5075760;28;20036;-67
2021/04/17 08:35:13;;;;;;;1.00;0.80;;;;;;;;;;5074593;28;20074;-67
2021/04/17 08:37:52;;;;;;;1.40;0.80;;;;;;;;;;5073729;28;20037;-67
2021/04/17 08:40:33;;;;;;;2.38;1.00;;;;;;;;;;5074009;28;20479;-67
2021/04/17 08:42:59;;;;;;;3.42;0.90;;;;;;;;;;5073946;28;20064;-67
2021/04/17 08:45:26;;;;;;;1.33;1.08;;;;;;;;;;5071704;28;20032;-68
2021/04/17 08:47:56;;;;;;;2.03;1.00;;;;;;;;;;5074261;28;20025;-67
2021/04/17 08:50:28;;;;;;;4.20;1.20;;;;;;;;;;5075336;28;20107;-67
2021/04/17 08:53:12;;;;;;;3.08;1.02;;;;;;;;;;5073275;28;20044;-67
2021/04/17 08:55:38;;;;;;;1.02;0.80;;;;;;;;;;5073382;28;20157;-68
2021/04/17 08:58:13;;;;;;;0.93;0.80;;;;;;;;;;5073809;28;20028;-67
2021/04/17 09:00:41;;;;;;;1.67;0.90;;;;;;;;;;5068845;28;20028;-66
2021/04/17 09:03:07;;;;;;;3.70;1.10;;;;;;;;;;5069308;28;20059;-67
2021/04/17 09:05:46;;;;;;;2.85;1.00;;;;;;;;;;5083611;28;20403;-67
2021/04/17 09:08:14;;;;;;;1.95;1.00;;;;;;;;;;5074423;28;20063;-67
2021/04/17 09:10:40;;;;;;;2.17;0.80;;;;;;;;;;5073254;28;20032;-67
2021/04/17 09:13:09;;;;;;;2.25;1.00;;;;;;;;;;5089036;28;20383;-67
2021/04/17 09:15:51;;;;;;;1.50;0.98;;;;;;;;;;5071649;28;20134;-67
2021/04/17 09:18:37;;;;;;;2.10;1.00;;;;;;;;;;5054379;28;20025;-67
2021/04/17 09:21:09;;;;;;;2.33;0.90;;;;;;;;;;5046904;28;20044;-68
2021/04/17 09:23:36;;;;;;;1.38;0.90;;;;;;;;;;5076090;28;20036;-67
2021/04/17 09:26:03;;;;;;;2.85;1.13;;;;;;;;;;5073142;28;20013;-67
2021/04/17 09:28:36;;;;;;;2.15;1.10;;;;;;;;;;5077460;28;20103;-68
2021/04/17 09:31:03;;;;;;;2.65;1.05;;;;;;;;;;5071136;28;20031;-68
2021/04/17 09:33:29;;;;;;;2.17;1.00;;;;;;;;;;5069282;28;20025;-67
2021/04/17 09:35:55;;;;;;;2.17;1.00;;;;;;;;;;5066674;28;20135;-67
2021/04/17 09:38:23;;;;;;;1.13;1.00;;;;;;;;;;5074000;28;20024;-68
2021/04/17 09:40:49;;;;;;;1.67;1.00;;;;;;;;;;5073206;28;20025;-68
2021/04/17 09:43:31;;;;;;;1.92;1.08;;;;;;;;;;5072925;28;20016;-68
2021/04/17 09:45:58;;;;;;;2.53;1.10;;;;;;;;;;5072602;28;20036;-68
2021/04/17 09:48:24;;;;;;;3.92;1.20;;;;;;;;;;5069948;28;20049;-66
2021/04/17 09:50:55;;;;;;;1.35;1.10;;;;;;;;;;5072807;28;20111;-67
2021/04/17 09:53:27;;;;;;;2.28;1.38;;;;;;;;;;5073990;28;20518;-66
2021/04/17 09:55:55;;;;;;;2.47;1.10;;;;;;;;;;5073369;28;20032;-67
2021/04/17 09:58:29;;;;;;;2.97;1.30;;;;;;;;;;5072233;28;20089;-67
2021/04/17 10:00:56;;;;;;;4.47;1.50;;;;;;;;;;5072675;28;20482;-65
2021/04/17 10:03:41;;;;;;;2.85;0.93;;;;;;;;;;5069410;28;20135;-67
2021/04/17 10:06:23;;;;;;;2.15;1.05;;;;;;;;;;5068886;28;20468;-67
2021/04/17 10:08:49;;;;;;;2.03;1.13;;;;;;;;;;5084218;28;20027;-67
2021/04/17 10:11:21;;;;;;;2.80;1.08;;;;;;;;;;5073639;28;20028;-69
2021/04/17 10:13:47;;;;;;;2.33;1.20;;;;;;;;;;5071409;28;20028;-68
2021/04/17 10:16:14;;;;;;;1.83;1.10;;;;;;;;;;5072510;28;20472;-68
2021/04/17 10:18:43;;;;;;;2.05;1.30;;;;;;;;;;5071390;28;20016;-67
2021/04/17 10:21:09;;;;;;;2.47;1.00;;;;;;;;;;5068166;28;20614;-70
2021/04/17 10:23:35;;;;;;;1.70;1.00;;;;;;;;;;5075587;28;20387;-68
2021/04/17 10:26:09;;;;;;;1.83;1.17;;;;;;;;;;5071827;28;20025;-69
2021/04/17 10:28:35;;;;;;;2.00;1.20;;;;;;;;;;5072191;28;20024;-69
2021/04/17 10:31:08;;;;;;;1.63;0.98;;;;;;;;;;5072026;28;20024;-68
2021/04/17 10:33:34;;;;;;;2.00;1.30;;;;;;;;;;5069490;28;20052;-68
2021/04/17 10:36:02;;;;;;;2.13;1.10;;;;;;;;;;5068818;28;20079;-67
2021/04/17 10:38:32;;;;;;;2.08;0.98;;;;;;;;;;5073907;28;20028;-68
2021/04/17 10:40:59;;;;;;;1.90;1.10;;;;;;;;;;5071479;28;20364;-67
2021/04/17 10:43:26;;;;;;;2.78;1.20;;;;;;;;;;5071842;28;20021;-68
2021/04/17 10:45:57;;;;;;;2.25;1.00;;;;;;;;;;5071817;28;20143;-67
2021/04/17 10:48:24;;;;;;;2.22;1.20;;;;;;;;;;5068665;28;20029;-67
2021/04/17 10:51:07;;;;;;;1.57;1.10;;;;;;;;;;5071896;28;20025;-67
2021/04/17 10:53:34;;;;;;;2.33;1.10;;;;;;;;;;5078184;28;20020;-66
2021/04/17 10:56:02;;;;;;;1.67;1.15;;;;;;;;;;5075980;28;20032;-67
2021/04/17 10:58:29;;;;;;;2.27;0.93;;;;;;;;;;5075990;28;20214;-68
2021/04/17 11:00:59;;;;;;;1.60;0.90;;;;;;;;;;5075916;28;20054;-67
2021/04/17 11:03:40;;;;;;;1.52;1.10;;;;;;;;;;5072450;28;20056;-67
2021/04/17 11:06:13;;;;;;;2.75;1.10;;;;;;;;;;5072188;28;20110;-67
2021/04/17 11:08:39;;;;;;;1.55;0.95;;;;;;;;;;5079171;28;20024;-67
2021/04/17 11:11:09;;;;;;;2.38;1.00;;;;;;;;;;5075578;28;20029;-68
2021/04/17 11:13:36;;;;;;;1.60;1.10;;;;;;;;;;5081752;28;20078;-68
2021/04/17 11:16:02;;;;;;;5.07;1.02;;;;;;;;;;5074132;28;20029;-68
2021/04/17 11:18:38;;;;;;;2.05;0.98;;;;;;;;;;5074531;28;20369;-70
2021/04/17 11:21:06;;;;;;;1.30;1.00;;;;;;;;;;5086355;28;20016;-68
2021/04/17 11:23:32;;;;;;;2.58;1.10;;;;;;;;;;5077035;28;20029;-68
2021/04/17 11:25:58;;;;;;;1.23;0.90;;;;;;;;;;5073946;28;20056;-66
2021/04/17 11:28:26;;;;;;;1.55;1.00;;;;;;;;;;5073422;28;20035;-69
2021/04/17 11:30:52;;;;;;;4.67;1.07;;;;;;;;;;5068874;28;20129;-68
2021/04/17 11:33:18;;;;;;;3.22;1.10;;;;;;;;;;5070290;28;20386;-65
2021/04/17 11:35:44;;;;;;;1.42;1.00;;;;;;;;;;5077132;28;20048;-68
2021/04/17 11:38:11;;;;;;;1.35;0.90;;;;;;;;;;5075502;28;20035;-67
2021/04/17 11:40:37;;;;;;;3.60;1.00;;;;;;;;;;5078742;28;20456;-66
2021/04/17 11:43:03;;;;;;;1.52;0.95;;;;;;;;;;5074551;28;20027;-66
2021/04/17 11:45:29;;;;;;;1.55;1.10;;;;;;;;;;5071384;28;20580;-65
2021/04/17 11:47:55;;;;;;;1.95;1.00;;;;;;;;;;5074709;28;20070;-67
2021/04/17 11:50:21;;;;;;;1.80;1.00;;;;;;;;;;5086975;28;20479;-67
2021/04/17 11:52:47;;;;;;;2.35;1.10;;;;;;;;;;5077161;28;20106;-66
2021/04/17 11:55:13;;;;;;;2.13;0.90;;;;;;;;;;5072059;28;20074;-67
2021/04/17 11:57:39;;;;;;;1.92;0.90;;;;;;;;;;5072205;28;20089;-66
2021/04/17 12:00:05;;;;;;;2.78;1.00;;;;;;;;;;5076754;28;20120;-66
2021/04/17 12:02:32;;;;;;;1.13;0.98;;;;;;;;;;5077075;28;20443;-66
2021/04/17 12:04:58;;;;;;;1.35;1.02;;;;;;;;;;5073179;28;20426;-66
2021/04/17 12:07:24;;;;;;;1.52;0.90;;;;;;;;;;5073932;28;20028;-65
2021/04/17 12:09:53;;;;;;;1.45;1.10;;;;;;;;;;5071566;28;20024;-65
2021/04/17 12:12:19;;;;;;;2.00;0.90;;;;;;;;;;5085989;28;20024;-65
2021/04/17 12:14:45;;;;;;;1.70;1.00;;;;;;;;;;5076253;28;20028;-65
2021/04/17 12:17:11;;;;;;;2.15;1.20;;;;;;;;;;5074510;28;20043;-65
2021/04/17 12:19:37;;;;;;;2.60;1.08;;;;;;;;;;5074067;28;20013;-65
2021/04/17 12:22:03;;;;;;;1.70;0.90;;;;;;;;;;5074362;28;20550;-65
2021/04/17 12:24:29;;;;;;;1.15;0.90;;;;;;;;;;5074369;28;20016;-65
2021/04/17 12:26:56;;;;;;;1.50;0.90;;;;;;;;;;5073928;28;20502;-65
2021/04/17 12:29:21;;;;;;;1.58;0.85;;;;;;;;;;5074677;28;20035;-65
2021/04/17 12:31:47;;;;;;;2.45;1.10;;;;;;;;;;5074272;28;20028;-73
2021/04/17 12:34:13;;;;;;;2.75;0.90;;;;;;;;;;5074008;28;20059;-73
2021/04/17 12:36:39;;;;;;;1.23;0.90;;;;;;;;;;5073270;28;20460;-73
2021/04/17 12:39:05;;;;;;;3.08;0.95;;;;;;;;;;5069493;28;20044;-73
2021/04/17 12:41:35;;;;;;;2.45;1.00;;;;;;;;;;5091838;28;20503;-73
2021/04/17 12:44:01;;;;;;;1.80;0.90;;;;;;;;;;5073964;28;20389;-73
2021/04/17 12:46:27;;;;;;;1.58;0.88;;;;;;;;;;5073847;28;20090;-73
2021/04/17 12:48:53;;;;;;;3.03;0.98;;;;;;;;;;5073828;28;20027;-73
2021/04/17 12:51:19;;;;;;;1.90;1.10;;;;;;;;;;5070456;28;20037;-73
2021/04/17 12:53:45;;;;;;;1.33;0.82;;;;;;;;;;5074095;28;20026;-73
2021/04/17 12:56:11;;;;;;;2.03;1.02;;;;;;;;;;5074233;28;20035;-73
2021/04/17 12:58:39;;;;;;;1.60;0.85;;;;;;;;;;5073460;28;20021;-73
2021/04/17 13:01:05;;;;;;;2.25;1.10;;;;;;;;;;5073215;28;20054;-73
2021/04/17 13:03:31;;;;;;;2.47;1.10;;;;;;;;;;5070818;28;20437;-72
2021/04/17 13:05:57;;;;;;;1.90;1.10;;;;;;;;;;5072985;28;20029;-73
2021/04/17 13:08:24;;;;;;;2.53;1.00;;;;;;;;;;5074687;28;20099;-73
2021/04/17 13:10:51;;;;;;;2.70;0.88;;;;;;;;;;5073436;28;20032;-73
2021/04/17 13:13:17;;;;;;;1.30;1.00;;;;;;;;;;5072382;28;20056;-73
2021/04/17 13:15:46;;;;;;;1.40;1.10;;;;;;;;;;5070505;28;20074;-74
2021/04/17 13:18:13;;;;;;;2.42;1.20;;;;;;;;;;5053111;28;20111;-73
2021/04/17 13:20:39;;;;;;;2.28;1.10;;;;;;;;;;5075577;28;20119;-73
2021/04/17 13:23:05;;;;;;;1.52;1.10;;;;;;;;;;5073276;28;20036;-73
2021/04/17 13:25:31;;;;;;;1.48;1.00;;;;;;;;;;5072578;28;20031;-73
2021/04/17 13:27:57;;;;;;;1.50;0.80;;;;;;;;;;5072996;28;20501;-73
2021/04/17 13:30:23;;;;;;;3.05;1.08;;;;;;;;;;5070741;28;20075;-73
2021/04/17 13:32:50;;;;;;;1.83;0.90;;;;;;;;;;5070740;28;20361;-73
2021/04/17 13:35:16;;;;;;;1.38;0.90;;;;;;;;;;5090120;28;20432;-74
2021/04/17 13:37:43;;;;;;;1.27;0.80;;;;;;;;;;5072391;28;20400;-73
2021/04/17 13:40:09;;;;;;;2.38;1.10;;;;;;;;;;5072986;28;20029;-73
2021/04/17 13:42:35;;;;;;;1.45;1.15;;;;;;;;;;5081005;28;20550;-73
2021/04/17 13:45:04;;;;;;;1.67;1.15;;;;;;;;;;5070973;28;20034;-73
2021/04/17 13:47:33;;;;;;;1.17;0.90;;;;;;;;;;5089939;28;20387;-73
2021/04/17 13:49:59;;;;;;;2.53;1.17;;;;;;;;;;5072867;28;20032;-73
2021/04/17 13:52:31;;;;;;;1.50;1.00;;;;;;;;;;5074432;28;20361;-74
2021/04/17 13:55:04;;;;;;;4.05;1.08;;;;;;;;;;5072407;28;20032;-73
2021/04/17 13:57:30;;;;;;;2.70;0.82;;;;;;;;;;5070358;28;20090;-73
2021/04/17 13:59:59;;;;;;;1.73;1.10;;;;;;;;;;5071579;28;20414;-73
2021/04/17 14:02:33;;;;;;;1.25;0.98;;;;;;;;;;5088268;28;20479;-73
2021/04/17 14:05:08;;;;;;;2.20;1.27;;;;;;;;;;5073320;28;20028;-74
2021/04/17 14:07:37;;;;;;;2.05;1.10;;;;;;;;;;5069033;28;20108;-73
2021/04/17 14:10:10;;;;;;;0.63;0.63;;;;;;;;;;5075723;28;20043;-68
2021/04/17 14:12:53;;;;;;;1.65;0.90;;;;;;;;;;5068093;28;20020;-68
2021/04/17 14:15:19;;;;;;;1.25;1.00;;;;;;;;;;5072471;28;20029;-68
2021/04/17 14:20:46;;;;;;;2.25;1.05;;;;;;;;;;5068652;28;20037;-67
2021/04/17 14:23:13;;;;;;;0.98;0.85;;;;;;;;;;5085051;28;20024;-68
2021/04/17 14:25:58;;;;;;;1.42;0.90;;;;;;;;;;5074390;28;20115;-69
2021/04/17 14:28:36;;;;;;;2.55;1.00;;;;;;;;;;5069711;28;20028;-70
2021/04/17 14:31:02;;;;;;;1.52;0.98;;;;;;;;;;5071916;28;20028;-69
2021/04/17 14:33:34;;;;;;;2.00;1.00;;;;;;;;;;5076978;28;20029;-70
2021/04/17 14:36:03;;;;;;;2.58;1.20;;;;;;;;;;5067672;28;20052;-68
2021/04/17 14:38:30;;;;;;;1.73;0.80;;;;;;;;;;5074411;28;20117;-68
2021/04/17 14:40:56;;;;;;;3.00;0.98;;;;;;;;;;5069907;28;20060;-68
2021/04/17 14:43:29;;;;;;;1.42;1.10;;;;;;;;;;5070717;28;20468;-68
2021/04/17 14:45:55;;;;;;;1.55;1.00;;;;;;;;;;5069179;28;20116;-68
2021/04/17 14:48:24;;;;;;;2.13;1.10;;;;;;;;;;5082141;28;20458;-68
2021/04/17 14:50:53;;;;;;;1.77;1.00;;;;;;;;;;5071476;28;20020;-68